createdAt,value
2022-10-10T00:02:40.703Z,10.78
2022-10-10T00:05:47.967Z,10.85
2022-10-10T00:08:53.072Z,10.78
2022-10-10T00:11:57.868Z,10.77
2022-10-10T00:15:02.984Z,10.71
2022-10-10T00:18:08.434Z,10.66
2022-10-10T00:21:14.720Z,10.68
2022-10-10T00:24:19.496Z,10.58
2022-10-10T00:27:24.313Z,10.67
2022-10-10T00:30:29.683Z,10.55
2022-10-10T00:33:34.493Z,10.52
2022-10-10T00:36:40.637Z,10.57
2022-10-10T00:39:45.472Z,10.51
2022-10-10T00:42:50.815Z,10.52
2022-10-10T00:45:56.041Z,10.54
2022-10-10T00:49:00.967Z,10.49
2022-10-10T00:52:09.715Z,10.47
2022-10-10T00:55:15.187Z,10.45
2022-10-10T00:58:21.154Z,10.36
2022-10-10T01:01:25.945Z,10.33
2022-10-10T01:04:36.422Z,10.41
2022-10-10T01:07:43.547Z,10.36
2022-10-10T01:11:07.618Z,10.30
2022-10-10T01:14:23.116Z,10.28
2022-10-10T01:17:34.429Z,10.24
2022-10-10T01:21:09.287Z,10.17
2022-10-10T01:24:42.272Z,10.19
2022-10-10T01:27:49.733Z,10.17
2022-10-10T01:30:57.261Z,10.21
2022-10-10T01:34:08.543Z,10.04
2022-10-10T01:37:20.459Z,10.06
2022-10-10T01:40:30.984Z,10.11
2022-10-10T01:43:37.708Z,10.05
2022-10-10T01:46:44.147Z,10.09
2022-10-10T01:49:52.984Z,10.09
2022-10-10T01:53:10.698Z,10.03
2022-10-10T01:56:23.611Z,9.98
2022-10-10T01:59:40.762Z,10.00
2022-10-10T02:02:54.007Z,10.10
2022-10-10T02:06:03.680Z,10.04
2022-10-10T02:09:13.339Z,10.02
2022-10-10T02:12:18.043Z,10.03
2022-10-10T02:15:25.588Z,9.98
2022-10-10T02:18:33.892Z,10.01
2022-10-10T02:21:39.679Z,10.00
2022-10-10T02:24:44.621Z,10.02
2022-10-10T02:27:55.943Z,10.04
2022-10-10T02:31:06.063Z,9.95
2022-10-10T02:34:16.887Z,9.81
2022-10-10T02:37:22.480Z,9.92
2022-10-10T02:40:32.392Z,9.87
2022-10-10T02:43:37.647Z,9.93
2022-10-10T02:46:43.435Z,9.88
2022-10-10T02:49:49.596Z,9.94
2022-10-10T02:52:54.385Z,9.95
2022-10-10T02:55:59.314Z,9.93
2022-10-10T02:59:04.183Z,9.80
2022-10-10T03:02:09.699Z,9.73
2022-10-10T03:05:16.601Z,9.79
2022-10-10T03:08:21.550Z,9.85
2022-10-10T03:11:27.279Z,9.80
2022-10-10T03:14:31.957Z,9.78
2022-10-10T03:17:37.854Z,9.79
2022-10-10T03:20:45.777Z,9.79
2022-10-10T03:23:51.130Z,9.85
2022-10-10T03:26:55.842Z,9.81
2022-10-10T03:30:00.744Z,9.80
2022-10-10T03:33:07.696Z,9.83
2022-10-10T03:36:14.029Z,9.79
2022-10-10T03:39:18.742Z,9.77
2022-10-10T03:42:23.631Z,9.78
2022-10-10T03:45:28.388Z,9.77
2022-10-10T03:48:33.220Z,9.68
2022-10-10T03:51:39.495Z,9.66
2022-10-10T03:54:44.147Z,9.74
2022-10-10T03:57:48.915Z,9.72
2022-10-10T04:00:57.915Z,9.70
2022-10-10T04:04:02.719Z,9.69
2022-10-10T04:07:09.069Z,9.60
2022-10-10T04:10:13.862Z,9.65
2022-10-10T04:13:19.058Z,9.57
2022-10-10T04:16:23.711Z,9.62
2022-10-10T04:19:28.464Z,9.54
2022-10-10T04:22:34.560Z,9.62
2022-10-10T04:25:39.971Z,9.63
2022-10-10T04:28:44.865Z,9.55
2022-10-10T04:31:49.762Z,9.57
2022-10-10T04:34:54.501Z,9.58
2022-10-10T04:38:00.844Z,9.58
2022-10-10T04:41:05.960Z,9.60
2022-10-10T04:44:12.062Z,9.56
2022-10-10T04:47:16.926Z,9.49
2022-10-10T04:50:21.914Z,9.59
2022-10-10T04:53:28.912Z,9.59
2022-10-10T04:56:33.681Z,9.58
2022-10-10T04:59:38.468Z,9.60
2022-10-10T05:02:43.616Z,9.61
2022-10-10T05:05:48.284Z,9.59
2022-10-10T05:08:54.382Z,9.60
2022-10-10T05:11:59.112Z,9.62
2022-10-10T05:15:04.290Z,9.67
2022-10-10T05:18:12.832Z,9.65
2022-10-10T05:21:18.128Z,9.53
2022-10-10T05:24:24.799Z,9.60
2022-10-10T05:27:30.448Z,9.58
2022-10-10T05:30:35.114Z,9.65
2022-10-10T05:33:39.994Z,9.59
2022-10-10T05:36:44.877Z,9.59
2022-10-10T05:39:54.715Z,9.63
2022-10-10T05:42:59.611Z,9.66
2022-10-10T05:46:04.978Z,9.65
2022-10-10T05:49:09.925Z,9.73
2022-10-10T05:52:15.032Z,9.70
2022-10-10T05:55:21.130Z,9.72
2022-10-10T05:58:27.650Z,9.74
2022-10-10T06:01:33.116Z,9.78
2022-10-10T06:04:38.581Z,9.80
2022-10-10T06:08:03.548Z,9.83
2022-10-10T06:11:11.283Z,9.86
2022-10-10T06:14:16.022Z,9.85
2022-10-10T06:17:21.480Z,9.87
2022-10-10T06:20:26.179Z,9.94
2022-10-10T06:23:31.315Z,9.97
2022-10-10T06:26:37.706Z,9.99
2022-10-10T06:29:43.319Z,10.05
2022-10-10T06:32:48.342Z,10.11
2022-10-10T06:35:53.293Z,10.18
2022-10-10T06:38:58.025Z,10.21
2022-10-10T06:42:04.643Z,10.22
2022-10-10T06:45:10.984Z,10.19
2022-10-10T06:48:16.801Z,10.27
2022-10-10T06:51:21.618Z,10.35
2022-10-10T06:54:26.756Z,10.37
2022-10-10T06:57:32.884Z,10.47
2022-10-10T07:00:37.630Z,10.50
2022-10-10T07:03:42.537Z,10.53
2022-10-10T07:06:47.696Z,10.57
2022-10-10T07:09:52.342Z,10.56
2022-10-10T07:12:58.469Z,10.67
2022-10-10T07:16:03.474Z,10.71
2022-10-10T07:19:08.874Z,10.72
2022-10-10T07:22:15.089Z,10.79
2022-10-10T07:25:20.754Z,10.87
2022-10-10T07:28:26.996Z,10.99
2022-10-10T07:31:32.060Z,11.03
2022-10-10T07:34:38.943Z,11.00
2022-10-10T07:37:43.722Z,11.04
2022-10-10T07:40:48.687Z,11.07
2022-10-10T07:43:59.081Z,11.13
2022-10-10T07:47:03.780Z,11.10
2022-10-10T07:50:10.544Z,11.22
2022-10-10T07:53:16.815Z,11.33
2022-10-10T07:56:22.182Z,11.40
2022-10-10T07:59:28.493Z,11.41
2022-10-10T08:02:33.271Z,11.54
2022-10-10T08:05:41.852Z,11.53
2022-10-10T08:08:51.920Z,11.49
2022-10-10T08:11:57.079Z,11.60
2022-10-10T08:15:03.342Z,11.65
2022-10-10T08:18:10.097Z,11.78
2022-10-10T08:21:16.800Z,11.91
2022-10-10T08:24:21.473Z,12.00
2022-10-10T08:27:26.515Z,12.09
2022-10-10T08:30:32.788Z,12.16
2022-10-10T08:33:38.667Z,12.11
2022-10-10T08:36:43.431Z,12.20
2022-10-10T08:39:48.246Z,12.15
2022-10-10T08:42:55.202Z,12.21
2022-10-10T08:46:16.918Z,12.31
2022-10-10T08:49:26.768Z,12.48
2022-10-10T08:52:34.922Z,12.46
2022-10-10T08:55:43.543Z,12.57
2022-10-10T08:58:55.532Z,12.52
2022-10-10T09:06:09.299Z,12.61
2022-10-10T09:09:21.534Z,12.64
2022-10-10T09:12:33.922Z,12.67
2022-10-10T09:15:56.359Z,12.65
2022-10-10T09:19:12.565Z,12.73
2022-10-10T09:22:24.732Z,12.79
2022-10-10T09:25:33.955Z,12.87
2022-10-10T09:28:41.772Z,12.98
2022-10-10T09:31:51.571Z,12.99
2022-10-10T09:35:05.552Z,13.04
2022-10-10T09:38:29.431Z,13.00
2022-10-10T09:41:37.836Z,12.93
2022-10-10T09:44:44.091Z,12.91
2022-10-10T09:47:56.469Z,12.89
2022-10-10T09:51:03.708Z,13.08
2022-10-10T09:54:08.830Z,13.08
2022-10-10T09:57:17.303Z,13.26
2022-10-10T10:00:37.749Z,13.40
2022-10-10T10:03:42.727Z,13.59
2022-10-10T10:06:51.840Z,13.65
2022-10-10T10:09:59.637Z,13.73
2022-10-10T10:13:04.902Z,13.69
2022-10-10T10:16:12.989Z,13.68
2022-10-10T10:19:33.221Z,13.70
2022-10-10T10:22:41.039Z,13.74
2022-10-10T10:25:45.912Z,13.72
2022-10-10T10:28:53.252Z,13.77
2022-10-10T10:32:10.226Z,13.83
2022-10-10T10:35:24.843Z,13.89
2022-10-10T10:38:41.090Z,13.86
2022-10-10T10:41:52.237Z,13.82
2022-10-10T10:45:02.337Z,13.85
2022-10-10T10:48:16.995Z,13.96
2022-10-10T10:51:49.903Z,13.96
2022-10-10T10:55:14.658Z,14.00
2022-10-10T10:59:22.573Z,14.05
2022-10-10T11:02:57.405Z,14.01
2022-10-10T11:06:22.358Z,13.97
2022-10-10T11:09:48.998Z,13.97
2022-10-10T11:13:05.071Z,14.03
2022-10-10T11:16:43.595Z,14.06
2022-10-10T11:19:48.948Z,14.12
2022-10-10T11:22:58.264Z,14.16
2022-10-10T11:26:07.746Z,14.19
2022-10-10T11:29:17.810Z,14.23
2022-10-10T11:32:28.557Z,14.27
2022-10-10T11:35:38.476Z,14.30
2022-10-10T11:38:49.476Z,14.34
2022-10-10T11:41:56.818Z,14.31
2022-10-10T11:45:10.148Z,14.42
2022-10-10T11:48:28.430Z,14.46
2022-10-10T11:51:50.159Z,14.42
2022-10-10T11:55:00.196Z,14.46
2022-10-10T11:58:29.831Z,14.49
2022-10-10T12:01:39.376Z,14.48
2022-10-10T12:04:44.154Z,14.55
2022-10-10T12:08:03.459Z,14.51
2022-10-10T12:11:14.665Z,14.52
2022-10-10T12:14:22.261Z,14.55
2022-10-10T12:17:31.532Z,14.60
2022-10-10T12:20:37.841Z,14.59
2022-10-10T12:23:43.744Z,14.63
2022-10-10T12:27:43.609Z,14.57
2022-10-10T12:31:29.291Z,14.58
2022-10-10T12:34:57.558Z,14.64
2022-10-10T12:38:19.058Z,14.69
2022-10-10T12:41:23.792Z,14.71
2022-10-10T12:44:45.170Z,14.71
2022-10-10T12:48:04.883Z,14.67
2022-10-10T12:51:22.264Z,14.55
2022-10-10T12:54:31.859Z,14.53
2022-10-10T12:57:41.663Z,14.47
2022-10-10T13:00:48.834Z,14.38
2022-10-10T13:03:54.980Z,14.42
2022-10-10T13:07:02.964Z,14.44
2022-10-10T13:10:20.982Z,14.38
2022-10-10T13:13:25.787Z,14.33
2022-10-10T13:16:33.986Z,14.39
2022-10-10T13:19:42.924Z,14.42
2022-10-10T13:22:49.274Z,14.44
2022-10-10T13:25:54.425Z,14.35
2022-10-10T13:29:02.039Z,14.38
2022-10-10T13:32:09.751Z,14.31
2022-10-10T13:35:17.142Z,14.31
2022-10-10T13:38:26.821Z,14.32
2022-10-10T13:41:31.971Z,14.32
2022-10-10T13:44:51.575Z,14.34
2022-10-10T13:47:58.179Z,14.31
2022-10-10T13:51:06.979Z,14.29
2022-10-10T13:54:40.030Z,14.16
2022-10-10T13:57:44.867Z,14.11
2022-10-10T14:00:57.159Z,14.13
2022-10-10T14:04:21.409Z,14.05
2022-10-10T14:07:28.597Z,14.11
2022-10-10T14:10:37.132Z,14.07
2022-10-10T14:13:41.927Z,13.99
2022-10-10T14:16:46.724Z,14.00
2022-10-10T14:19:52.572Z,13.94
2022-10-10T14:23:01.233Z,13.91
2022-10-10T14:26:08.562Z,13.79
2022-10-10T14:29:15.900Z,13.77
2022-10-10T14:32:21.407Z,13.76
2022-10-10T14:35:34.347Z,13.77
2022-10-10T14:38:39.108Z,13.70
2022-10-10T14:41:45.898Z,13.70
2022-10-10T14:44:51.063Z,13.73
2022-10-10T14:47:56.238Z,13.66
2022-10-10T14:51:01.180Z,13.69
2022-10-10T14:54:25.985Z,13.63
2022-10-10T14:57:32.474Z,13.66
2022-10-10T15:00:37.363Z,13.53
2022-10-10T15:03:42.058Z,13.51
2022-10-10T15:07:12.058Z,13.58
2022-10-10T15:13:41.452Z,13.41
2022-10-10T15:16:46.096Z,13.45
2022-10-10T15:19:50.809Z,13.42
2022-10-10T15:22:55.887Z,13.35
2022-10-10T15:26:01.411Z,13.31
2022-10-10T15:29:07.571Z,13.26
2022-10-10T15:32:14.426Z,13.28
2022-10-10T15:35:24.880Z,13.27
2022-10-10T15:38:31.268Z,13.17
2022-10-10T15:41:35.947Z,13.18
2022-10-10T15:44:47.096Z,13.17
2022-10-10T15:47:52.263Z,13.17
2022-10-10T15:50:57.019Z,13.17
2022-10-10T15:54:02.330Z,13.06
2022-10-10T15:57:07.558Z,13.04
2022-10-10T16:00:16.417Z,13.04
2022-10-10T16:03:21.519Z,12.98
2022-10-10T16:06:27.377Z,13.00
2022-10-10T16:09:32.128Z,12.95
2022-10-10T16:12:37.072Z,12.91
2022-10-10T16:15:43.553Z,12.88
2022-10-10T16:18:48.439Z,12.86
2022-10-10T16:21:53.178Z,12.86
2022-10-10T16:28:22.970Z,12.81
2022-10-10T16:31:30.195Z,12.77
2022-10-10T16:34:35.136Z,12.72
2022-10-10T16:37:40.075Z,12.72
2022-10-10T16:40:44.799Z,12.72
2022-10-10T16:43:50.139Z,12.59
2022-10-10T16:46:56.454Z,12.63
2022-10-10T16:50:01.544Z,12.67
2022-10-10T16:53:06.529Z,12.57
2022-10-10T16:56:15.138Z,12.60
2022-10-10T16:59:20.109Z,12.59
2022-10-10T17:02:26.371Z,12.56
2022-10-10T17:05:31.330Z,12.49
2022-10-10T17:08:36.010Z,12.51
2022-10-10T17:11:40.842Z,12.48
2022-10-10T17:14:45.668Z,12.48
2022-10-10T17:17:51.834Z,12.46
2022-10-10T17:20:56.565Z,12.44
2022-10-10T17:24:01.299Z,12.48
2022-10-10T17:27:06.270Z,12.42
2022-10-10T17:30:13.738Z,12.42
2022-10-10T17:33:21.640Z,12.40
2022-10-10T17:36:29.202Z,12.42
2022-10-10T17:39:34.237Z,12.37
2022-10-10T17:42:39.310Z,12.31
2022-10-10T17:45:43.980Z,12.35
2022-10-10T17:48:50.288Z,12.40
2022-10-10T17:51:55.425Z,12.36
2022-10-10T17:55:00.190Z,12.33
2022-10-10T17:58:04.917Z,12.40
2022-10-10T18:01:10.383Z,12.49
2022-10-10T18:04:17.395Z,12.53
2022-10-10T18:07:22.302Z,12.57
2022-10-10T18:10:27.183Z,12.50
2022-10-10T18:13:32.284Z,12.59
2022-10-10T18:16:38.075Z,12.53
2022-10-10T18:19:44.447Z,12.53
2022-10-10T18:22:49.123Z,12.58
2022-10-10T18:26:00.891Z,12.61
2022-10-10T18:29:05.851Z,12.60
2022-10-10T18:32:11.395Z,12.57
2022-10-10T18:35:18.069Z,12.59
2022-10-10T18:38:23.241Z,12.63
2022-10-10T18:41:34.094Z,12.61
2022-10-10T18:44:39.198Z,12.59
2022-10-10T18:47:43.835Z,12.60
2022-10-10T18:50:50.519Z,12.59
2022-10-10T18:54:01.865Z,12.60
2022-10-10T18:57:07.254Z,12.58
2022-10-10T19:00:15.571Z,12.57
2022-10-10T19:03:20.604Z,12.61
2022-10-10T19:06:27.755Z,12.52
2022-10-10T19:09:34.192Z,12.57
2022-10-10T19:12:43.924Z,12.52
2022-10-10T19:15:52.381Z,12.47
2022-10-10T19:18:58.874Z,12.44
2022-10-10T19:22:05.359Z,12.46
2022-10-10T19:25:12.283Z,12.48
2022-10-10T19:28:18.654Z,12.50
2022-10-10T19:31:23.932Z,12.52
2022-10-10T19:34:28.775Z,12.52
2022-10-10T19:37:34.832Z,12.58
2022-10-10T19:40:45.631Z,12.60
2022-10-10T19:43:53.136Z,12.63
2022-10-10T19:46:59.627Z,12.58
2022-10-10T19:50:04.603Z,12.57
2022-10-10T19:53:13.043Z,12.59
2022-10-10T19:56:22.031Z,12.49
2022-10-10T19:59:26.822Z,12.54
2022-10-10T20:02:31.501Z,12.51
2022-10-10T20:05:37.022Z,12.53
2022-10-10T20:08:43.259Z,12.49
2022-10-10T20:11:48.079Z,12.46
2022-10-10T20:14:52.752Z,12.48
2022-10-10T20:17:57.660Z,12.51
2022-10-10T20:21:10.164Z,12.51
2022-10-10T20:24:19.411Z,12.51
2022-10-10T20:27:28.829Z,12.41
2022-10-10T20:30:40.170Z,12.44
2022-10-10T20:33:45.338Z,12.45
2022-10-10T20:36:50.054Z,12.51
2022-10-10T20:39:56.100Z,12.51
2022-10-10T20:43:01.282Z,12.51
2022-10-10T20:46:08.348Z,12.51
2022-10-10T20:49:16.915Z,12.51
2022-10-10T20:52:21.658Z,12.56
2022-10-10T20:55:27.808Z,12.60
2022-10-10T20:58:33.150Z,12.59
2022-10-10T21:01:38.352Z,12.59
2022-10-10T21:04:43.047Z,12.63
2022-10-10T21:07:48.031Z,12.66
2022-10-10T21:10:54.369Z,12.70
2022-10-10T21:14:01.080Z,12.71
2022-10-10T21:17:07.375Z,12.71
2022-10-10T21:20:12.980Z,12.75
2022-10-10T21:23:17.991Z,12.76
2022-10-10T21:26:25.730Z,12.79
2022-10-10T21:29:30.621Z,12.80
2022-10-10T21:32:35.316Z,12.85
2022-10-10T21:35:40.151Z,12.87
2022-10-10T21:38:45.500Z,12.89
2022-10-10T21:41:51.575Z,12.89
2022-10-10T21:44:56.427Z,12.95
2022-10-10T21:48:01.491Z,12.94
2022-10-10T21:51:06.910Z,12.97
2022-10-10T21:54:13.669Z,13.00
2022-10-10T21:57:21.011Z,13.02
2022-10-10T22:00:25.935Z,13.02
2022-10-10T22:03:30.723Z,13.05
2022-10-10T22:06:35.650Z,13.04
2022-10-10T22:09:40.581Z,13.01
2022-10-10T22:12:47.863Z,13.05
2022-10-10T22:15:52.848Z,13.06
2022-10-10T22:18:58.204Z,13.07
2022-10-10T22:22:02.896Z,13.13
2022-10-10T22:25:10.024Z,13.10
2022-10-10T22:28:17.387Z,13.10
2022-10-10T22:31:22.271Z,13.09
2022-10-10T22:34:27.266Z,13.09
2022-10-10T22:37:32.299Z,13.08
2022-10-10T22:40:37.120Z,13.04
2022-10-10T22:43:43.145Z,13.02
2022-10-10T22:46:48.747Z,13.01
2022-10-10T22:49:54.082Z,12.87
2022-10-10T22:52:58.892Z,12.94
2022-10-10T22:56:04.166Z,12.91
2022-10-10T22:59:10.877Z,12.91
2022-10-10T23:02:15.862Z,12.95
2022-10-10T23:05:20.855Z,12.95
2022-10-10T23:08:25.871Z,12.91
2022-10-10T23:11:30.680Z,12.91
2022-10-10T23:14:37.225Z,12.86
2022-10-10T23:17:42.187Z,12.90
2022-10-10T23:20:47.383Z,12.87
2022-10-10T23:23:52.519Z,12.82
2022-10-10T23:26:57.332Z,12.86
2022-10-10T23:30:03.768Z,12.84
2022-10-10T23:33:11.032Z,12.85
2022-10-10T23:36:16.652Z,12.82
2022-10-10T23:39:21.600Z,12.71
2022-10-10T23:42:26.495Z,12.68
2022-10-10T23:45:32.563Z,12.62
2022-10-10T23:48:37.755Z,12.57
2022-10-10T23:51:42.620Z,12.51
2022-10-10T23:54:47.372Z,12.46
2022-10-10T23:57:52.049Z,12.40
